createdAt,value
2023-04-09T00:01:17.837Z,84.52
2023-04-09T00:03:44.412Z,84.58
2023-04-09T00:06:11.898Z,85.12
2023-04-09T00:08:38.323Z,84.51
2023-04-09T00:11:05.056Z,84.99
2023-04-09T00:13:39.338Z,84.84
2023-04-09T00:16:07.543Z,85.36
2023-04-09T00:18:34.124Z,84.49
2023-04-09T00:21:00.703Z,84.52
2023-04-09T00:23:27.529Z,84.50
2023-04-09T00:25:54.352Z,84.51
2023-04-09T00:28:20.880Z,85.05
2023-04-09T00:30:47.291Z,84.51
2023-04-09T00:33:13.916Z,85.11
2023-04-09T00:35:41.605Z,85.05
2023-04-09T00:38:08.085Z,84.87
2023-04-09T00:40:34.486Z,84.96
2023-04-09T00:43:01.184Z,84.92
2023-04-09T00:45:28.158Z,85.34
2023-04-09T00:47:54.649Z,84.98
2023-04-09T00:50:21.518Z,85.17
2023-04-09T00:52:48.089Z,84.68
2023-04-09T00:55:15.529Z,85.15
2023-04-09T00:57:42.073Z,85.41
2023-04-09T01:00:09.774Z,85.15
2023-04-09T01:02:36.877Z,84.80
2023-04-09T01:05:04.069Z,85.29
2023-04-09T01:07:47.455Z,84.92
2023-04-09T01:10:31.998Z,84.84
2023-04-09T01:12:58.499Z,85.14
2023-04-09T01:15:27.200Z,85.28
2023-04-09T01:18:03.032Z,85.56
2023-04-09T01:20:35.499Z,85.73
2023-04-09T01:23:18.782Z,85.08
2023-04-09T01:25:59.678Z,85.65
2023-04-09T01:28:32.213Z,85.27
2023-04-09T01:31:03.060Z,85.42
2023-04-09T01:33:31.466Z,85.73
2023-04-09T01:36:00.026Z,85.81
2023-04-09T01:38:27.655Z,86.17
2023-04-09T01:40:56.508Z,86.23
2023-04-09T01:43:25.200Z,85.97
2023-04-09T01:45:51.938Z,85.73
2023-04-09T01:48:19.613Z,85.67
2023-04-09T01:50:46.837Z,86.07
2023-04-09T01:53:13.860Z,85.83
2023-04-09T01:55:40.260Z,86.01
2023-04-09T01:58:06.758Z,86.12
2023-04-09T02:00:39.989Z,85.84
2023-04-09T02:03:12.600Z,86.15
2023-04-09T02:05:44.614Z,86.01
2023-04-09T02:08:13.426Z,86.56
2023-04-09T02:10:40.683Z,85.49
2023-04-09T02:13:12.611Z,86.35
2023-04-09T02:15:40.389Z,86.00
2023-04-09T02:18:21.319Z,86.42
2023-04-09T02:20:47.738Z,85.57
2023-04-09T02:23:16.060Z,86.37
2023-04-09T02:25:44.192Z,86.43
2023-04-09T02:28:10.668Z,86.15
2023-04-09T02:30:37.237Z,85.98
2023-04-09T02:33:03.813Z,86.05
2023-04-09T02:35:30.411Z,86.36
2023-04-09T02:37:57.007Z,86.18
2023-04-09T02:40:23.513Z,85.98
2023-04-09T02:42:52.012Z,86.07
2023-04-09T02:45:18.716Z,86.72
2023-04-09T02:47:45.226Z,86.07
2023-04-09T02:50:11.686Z,86.40
2023-04-09T02:52:38.063Z,86.14
2023-04-09T02:55:04.980Z,85.95
2023-04-09T02:57:33.778Z,85.80
2023-04-09T03:00:00.594Z,86.14
2023-04-09T03:02:27.499Z,85.87
2023-04-09T03:04:54.170Z,85.86
2023-04-09T03:07:20.609Z,86.01
2023-04-09T03:09:46.989Z,86.19
2023-04-09T03:12:13.399Z,85.79
2023-04-09T03:14:39.901Z,86.33
2023-04-09T03:17:06.508Z,86.00
2023-04-09T03:19:33.022Z,85.96
2023-04-09T03:21:59.440Z,86.18
2023-04-09T03:24:25.864Z,86.57
2023-04-09T03:26:52.230Z,86.09
2023-04-09T03:29:19.752Z,86.44
2023-04-09T03:31:46.108Z,86.34
2023-04-09T03:34:12.504Z,86.51
2023-04-09T03:36:39.025Z,86.20
2023-04-09T03:39:05.586Z,86.24
2023-04-09T03:41:32.024Z,86.10
2023-04-09T03:43:58.412Z,86.55
2023-04-09T03:46:25.585Z,86.40
2023-04-09T03:48:52.203Z,86.87
2023-04-09T03:51:18.892Z,86.59
2023-04-09T03:53:45.468Z,86.85
2023-04-09T03:56:11.987Z,86.21
2023-04-09T03:58:47.740Z,86.87
2023-04-09T04:01:14.333Z,86.63
2023-04-09T04:03:41.093Z,86.53
2023-04-09T04:06:07.764Z,86.90
2023-04-09T04:08:34.216Z,87.05
2023-04-09T04:11:10.421Z,87.38
2023-04-09T04:13:42.658Z,86.83
2023-04-09T04:16:10.293Z,86.91
2023-04-09T04:18:36.950Z,87.12
2023-04-09T04:21:03.710Z,86.58
2023-04-09T04:23:30.219Z,86.89
2023-04-09T04:25:58.109Z,86.91
2023-04-09T04:28:24.600Z,86.99
2023-04-09T04:30:51.238Z,86.70
2023-04-09T04:33:17.696Z,86.86
2023-04-09T04:35:44.208Z,87.30
2023-04-09T04:38:13.538Z,87.15
2023-04-09T04:40:47.479Z,87.11
2023-04-09T04:43:26.273Z,86.96
2023-04-09T04:45:53.660Z,87.06
2023-04-09T04:48:20.459Z,87.02
2023-04-09T04:50:47.038Z,86.94
2023-04-09T04:53:13.440Z,87.20
2023-04-09T04:55:48.298Z,87.18
2023-04-09T04:58:14.984Z,86.75
2023-04-09T05:00:41.437Z,87.25
2023-04-09T05:03:07.906Z,86.76
2023-04-09T05:05:34.470Z,86.19
2023-04-09T05:08:09.231Z,86.70
2023-04-09T05:10:43.827Z,86.51
2023-04-09T05:13:10.330Z,86.29
2023-04-09T05:15:41.269Z,86.22
2023-04-09T05:18:08.496Z,86.44
2023-04-09T05:20:35.202Z,86.27
2023-04-09T05:23:01.922Z,85.84
2023-04-09T05:25:28.514Z,85.90
2023-04-09T05:27:55.492Z,85.86
2023-04-09T05:30:22.162Z,86.06
2023-04-09T05:32:48.612Z,86.42
2023-04-09T05:35:15.082Z,86.63
2023-04-09T05:37:41.576Z,86.03
2023-04-09T05:40:08.754Z,86.66
2023-04-09T05:42:36.005Z,86.33
2023-04-09T05:45:02.977Z,85.77
2023-04-09T05:47:29.437Z,85.87
2023-04-09T05:49:56.138Z,86.50
2023-04-09T05:52:22.593Z,85.99
2023-04-09T05:54:49.248Z,85.57
2023-04-09T05:57:15.913Z,85.46
2023-04-09T05:59:42.237Z,85.47
2023-04-09T06:02:08.904Z,85.24
2023-04-09T06:04:35.432Z,84.88
2023-04-09T06:07:02.633Z,85.29
2023-04-09T06:09:29.365Z,85.26
2023-04-09T06:12:10.761Z,86.10
2023-04-09T06:14:37.673Z,85.26
2023-04-09T06:17:08.374Z,85.52
2023-04-09T06:19:35.228Z,84.71
2023-04-09T06:22:01.807Z,83.87
2023-04-09T06:24:28.393Z,84.12
2023-04-09T06:26:54.992Z,83.59
2023-04-09T06:29:24.194Z,83.27
2023-04-09T06:31:50.818Z,83.03
2023-04-09T06:34:17.208Z,83.26
2023-04-09T06:36:44.588Z,82.93
2023-04-09T06:39:11.113Z,83.28
2023-04-09T06:41:37.597Z,83.47
2023-04-09T06:44:04.118Z,83.69
2023-04-09T06:46:30.601Z,83.70
2023-04-09T06:48:57.048Z,84.06
2023-04-09T06:51:23.613Z,83.70
2023-04-09T06:53:50.238Z,83.66
2023-04-09T06:56:16.876Z,83.48
2023-04-09T06:58:43.277Z,83.70
2023-04-09T07:01:10.208Z,84.22
2023-04-09T07:03:36.970Z,83.53
2023-04-09T07:06:04.298Z,83.10
2023-04-09T07:08:30.926Z,82.17
2023-04-09T07:10:57.444Z,82.07
2023-04-09T07:13:24.021Z,81.71
2023-04-09T07:15:50.473Z,80.93
2023-04-09T07:18:17.062Z,79.45
2023-04-09T07:20:46.652Z,77.91
2023-04-09T07:23:13.209Z,77.16
2023-04-09T07:25:39.758Z,75.20
2023-04-09T07:28:06.368Z,74.89
2023-04-09T07:30:32.885Z,74.33
2023-04-09T07:32:59.525Z,74.15
2023-04-09T07:35:26.231Z,74.45
2023-04-09T07:37:52.707Z,72.51
2023-04-09T07:40:19.932Z,70.82
2023-04-09T07:42:46.372Z,70.71
2023-04-09T07:48:02.656Z,68.25
2023-04-09T07:50:29.930Z,67.33
2023-04-09T07:52:56.424Z,65.50
2023-04-09T07:55:22.975Z,64.88
2023-04-09T07:57:49.378Z,63.70
2023-04-09T08:00:16.442Z,63.39
2023-04-09T08:02:43.932Z,63.22
2023-04-09T08:05:10.979Z,63.80
2023-04-09T08:07:37.559Z,63.60
2023-04-09T08:10:04.818Z,63.32
2023-04-09T08:12:31.193Z,61.93
2023-04-09T08:14:57.711Z,60.78
2023-04-09T08:17:24.708Z,60.40
2023-04-09T08:19:51.409Z,58.81
2023-04-09T08:22:18.074Z,58.57
2023-04-09T08:24:44.642Z,59.28
2023-04-09T08:27:11.212Z,59.11
2023-04-09T08:29:38.746Z,59.85
2023-04-09T08:32:05.394Z,59.21
2023-04-09T08:34:31.767Z,59.64
2023-04-09T08:36:58.397Z,58.38
2023-04-09T08:39:25.367Z,57.40
2023-04-09T08:41:52.320Z,58.51
2023-04-09T08:44:19.065Z,56.93
2023-04-09T08:46:45.450Z,55.50
2023-04-09T08:49:17.903Z,55.80
2023-04-09T08:51:48.621Z,55.21
2023-04-09T08:54:17.304Z,53.80
2023-04-09T08:56:43.842Z,52.13
2023-04-09T08:59:10.219Z,50.48
2023-04-09T09:01:36.964Z,52.51
2023-04-09T09:04:08.286Z,53.18
2023-04-09T09:06:37.307Z,53.42
2023-04-09T09:09:08.026Z,52.53
2023-04-09T09:11:40.459Z,51.61
2023-04-09T09:14:09.114Z,51.67
2023-04-09T09:16:43.550Z,50.70
2023-04-09T09:19:28.714Z,50.52
2023-04-09T09:21:59.887Z,50.21
2023-04-09T09:24:26.408Z,49.96
2023-04-09T09:26:54.635Z,49.42
2023-04-09T09:29:22.326Z,49.65
2023-04-09T09:31:56.554Z,48.59
2023-04-09T09:34:24.771Z,49.15
2023-04-09T09:36:51.337Z,48.97
2023-04-09T09:39:17.981Z,48.11
2023-04-09T09:41:46.000Z,48.22
2023-04-09T09:44:30.246Z,48.79
2023-04-09T09:46:58.681Z,49.85
2023-04-09T09:49:25.336Z,49.01
2023-04-09T09:51:53.379Z,47.58
2023-04-09T09:54:25.280Z,48.20
2023-04-09T09:56:55.981Z,48.43
2023-04-09T09:59:31.004Z,46.29
2023-04-09T10:02:02.351Z,46.06
2023-04-09T10:04:33.435Z,48.58
2023-04-09T10:07:04.086Z,48.78
2023-04-09T10:09:31.254Z,45.52
2023-04-09T10:11:59.353Z,44.80
2023-04-09T10:14:27.517Z,44.05
2023-04-09T10:16:54.064Z,44.68
2023-04-09T10:19:22.452Z,43.70
2023-04-09T10:22:04.454Z,44.72
2023-04-09T10:24:31.806Z,43.49
2023-04-09T10:27:15.708Z,45.03
2023-04-09T10:29:47.990Z,47.82
2023-04-09T10:32:26.887Z,43.82
2023-04-09T10:34:57.733Z,44.17
2023-04-09T10:37:26.089Z,44.75
2023-04-09T10:39:53.670Z,43.57
2023-04-09T10:42:42.049Z,44.47
2023-04-09T10:45:11.998Z,46.31
2023-04-09T10:47:40.684Z,45.25
2023-04-09T10:50:18.749Z,45.94
2023-04-09T10:52:46.026Z,46.28
2023-04-09T10:55:34.540Z,45.71
2023-04-09T10:58:00.949Z,47.12
2023-04-09T11:00:27.518Z,44.52
2023-04-09T11:03:03.215Z,42.07
2023-04-09T11:05:33.988Z,42.39
2023-04-09T11:08:06.576Z,43.82
2023-04-09T11:10:34.211Z,44.81
2023-04-09T11:13:01.491Z,44.44
2023-04-09T11:15:28.538Z,44.40
2023-04-09T11:17:55.615Z,44.28
2023-04-09T11:20:24.525Z,45.81
2023-04-09T11:22:56.163Z,45.02
2023-04-09T11:25:25.725Z,44.82
2023-04-09T11:27:52.950Z,45.47
2023-04-09T11:30:20.308Z,46.09
2023-04-09T11:32:53.202Z,46.82
2023-04-09T11:35:21.454Z,45.31
2023-04-09T11:37:50.049Z,45.30
2023-04-09T11:40:21.964Z,44.99
2023-04-09T11:42:50.205Z,43.18
2023-04-09T11:45:17.626Z,43.27
2023-04-09T11:47:45.195Z,42.95
2023-04-09T11:50:13.965Z,41.65
2023-04-09T11:52:41.457Z,42.87
2023-04-09T11:55:09.598Z,43.56
2023-04-09T11:57:47.055Z,44.92
2023-04-09T12:00:17.679Z,45.09
2023-04-09T12:02:49.391Z,45.36
2023-04-09T12:05:24.863Z,45.38
2023-04-09T12:10:30.491Z,44.86
2023-04-09T12:13:03.176Z,44.63
2023-04-09T12:15:34.868Z,44.51
2023-04-09T12:18:01.993Z,44.20
2023-04-09T12:20:49.750Z,44.22
2023-04-09T12:23:16.643Z,43.44
2023-04-09T12:25:45.275Z,43.56
2023-04-09T12:28:17.980Z,42.27
2023-04-09T12:30:44.907Z,42.30
2023-04-09T12:33:11.650Z,42.35
2023-04-09T12:35:38.626Z,42.91
2023-04-09T12:38:05.653Z,41.65
2023-04-09T12:40:32.281Z,40.93
2023-04-09T12:42:59.146Z,41.97
2023-04-09T12:48:06.545Z,41.76
2023-04-09T12:50:33.338Z,41.48
2023-04-09T12:53:03.588Z,42.75
2023-04-09T12:55:30.052Z,41.10
2023-04-09T12:57:56.705Z,41.66
2023-04-09T13:00:23.145Z,40.86
2023-04-09T13:02:49.937Z,40.78
2023-04-09T13:05:16.474Z,40.17
2023-04-09T13:07:43.567Z,40.96
2023-04-09T13:10:10.578Z,42.11
2023-04-09T13:12:37.430Z,42.92
2023-04-09T13:15:04.213Z,41.42
2023-04-09T13:17:30.638Z,41.54
2023-04-09T13:19:57.111Z,40.92
2023-04-09T13:22:23.521Z,41.36
2023-04-09T13:24:50.092Z,41.99
2023-04-09T13:27:17.330Z,41.88
2023-04-09T13:29:43.799Z,41.14
2023-04-09T13:34:51.363Z,41.45
2023-04-09T13:37:17.841Z,41.10
2023-04-09T13:39:45.424Z,41.98
2023-04-09T13:42:13.951Z,41.72
2023-04-09T13:44:42.731Z,40.39
2023-04-09T13:47:11.410Z,41.07
2023-04-09T13:49:38.056Z,41.66
2023-04-09T13:52:05.032Z,40.92
2023-04-09T13:54:32.201Z,42.38
2023-04-09T13:56:58.759Z,41.73
2023-04-09T13:59:25.402Z,40.90
2023-04-09T14:01:52.181Z,40.70
2023-04-09T14:04:19.365Z,41.04
2023-04-09T14:06:46.870Z,41.75
2023-04-09T14:09:13.389Z,42.18
2023-04-09T14:11:39.770Z,42.46
2023-04-09T14:14:06.400Z,41.89
2023-04-09T14:16:33.067Z,42.53
2023-04-09T14:18:59.807Z,41.95
2023-04-09T14:21:27.063Z,41.38
2023-04-09T14:23:53.672Z,40.91
2023-04-09T14:26:21.645Z,42.05
2023-04-09T14:28:49.572Z,42.59
2023-04-09T14:31:20.266Z,43.99
2023-04-09T14:33:47.719Z,43.35
2023-04-09T14:36:14.491Z,43.88
2023-04-09T14:38:40.963Z,43.43
2023-04-09T14:41:10.032Z,43.76
2023-04-09T14:43:36.531Z,43.59
2023-04-09T14:46:04.077Z,44.04
2023-04-09T14:48:30.664Z,44.53
2023-04-09T14:50:57.248Z,43.85
2023-04-09T14:53:23.820Z,43.99
2023-04-09T14:55:50.446Z,43.39
2023-04-09T14:58:17.285Z,44.63
2023-04-09T15:00:45.173Z,44.14
2023-04-09T15:03:11.957Z,44.38
2023-04-09T15:05:38.854Z,44.50
2023-04-09T15:08:05.701Z,44.46
2023-04-09T15:10:32.316Z,45.28
2023-04-09T15:13:07.949Z,43.55
2023-04-09T15:15:34.508Z,43.21
2023-04-09T15:18:09.876Z,43.39
2023-04-09T15:20:40.494Z,42.34
2023-04-09T15:23:06.990Z,43.15
2023-04-09T15:25:33.400Z,43.85
2023-04-09T15:28:00.014Z,44.15
2023-04-09T15:30:26.559Z,43.77
2023-04-09T15:32:53.232Z,44.04
2023-04-09T15:35:25.013Z,43.64
2023-04-09T15:37:52.296Z,44.67
2023-04-09T15:40:19.202Z,44.48
2023-04-09T15:42:45.939Z,45.10
2023-04-09T15:45:14.696Z,44.74
2023-04-09T15:47:47.033Z,43.81
2023-04-09T15:50:14.583Z,44.42
2023-04-09T15:52:41.355Z,45.14
2023-04-09T15:55:08.573Z,44.43
2023-04-09T15:57:35.195Z,46.06
2023-04-09T16:00:01.895Z,45.43
2023-04-09T16:02:28.586Z,45.20
2023-04-09T16:04:55.689Z,45.18
2023-04-09T16:07:22.130Z,45.10
2023-04-09T16:09:49.018Z,45.59
2023-04-09T16:12:15.438Z,45.10
2023-04-09T16:14:42.339Z,44.86
2023-04-09T16:17:08.941Z,45.21
2023-04-09T16:19:39.471Z,45.49
2023-04-09T16:22:06.494Z,45.73
2023-04-09T16:24:33.008Z,45.67
2023-04-09T16:26:59.394Z,45.08
2023-04-09T16:29:25.953Z,45.19
2023-04-09T16:31:52.992Z,45.06
2023-04-09T16:34:19.920Z,45.35
2023-04-09T16:36:46.376Z,45.02
2023-04-09T16:39:15.626Z,45.99
2023-04-09T16:41:43.461Z,45.62
2023-04-09T16:44:10.538Z,46.06
2023-04-09T16:46:36.952Z,46.19
2023-04-09T16:49:03.453Z,46.60
2023-04-09T16:51:29.954Z,46.43
2023-04-09T16:53:56.518Z,46.92
2023-04-09T16:56:41.398Z,46.99
2023-04-09T16:59:08.167Z,46.82
2023-04-09T17:01:41.162Z,46.50
2023-04-09T17:04:07.881Z,46.46
2023-04-09T17:06:34.446Z,46.73
2023-04-09T17:09:01.423Z,47.25
2023-04-09T17:11:28.270Z,47.43
2023-04-09T17:13:55.049Z,47.49
2023-04-09T17:16:22.019Z,47.26
2023-04-09T17:18:48.755Z,48.05
2023-04-09T17:21:15.621Z,47.91
2023-04-09T17:23:42.752Z,47.89
2023-04-09T17:26:09.223Z,47.61
2023-04-09T17:28:36.147Z,48.90
2023-04-09T17:31:02.713Z,48.06
2023-04-09T17:33:29.266Z,48.50
2023-04-09T17:35:57.562Z,48.20
2023-04-09T17:38:25.301Z,48.67
2023-04-09T17:40:53.275Z,49.02
2023-04-09T17:43:19.703Z,49.56
2023-04-09T17:45:46.336Z,49.68
2023-04-09T17:48:12.744Z,49.76
2023-04-09T17:50:39.261Z,50.06
2023-04-09T17:53:05.651Z,50.59
2023-04-09T17:55:32.254Z,50.11
2023-04-09T17:57:58.715Z,49.86
2023-04-09T18:00:25.206Z,50.16
2023-04-09T18:02:53.258Z,50.78
2023-04-09T18:05:20.361Z,51.59
2023-04-09T18:07:46.970Z,51.34
2023-04-09T18:10:13.421Z,52.59
2023-04-09T18:12:39.955Z,53.07
2023-04-09T18:15:07.192Z,53.50
2023-04-09T18:17:33.821Z,53.66
2023-04-09T18:20:00.446Z,54.99
2023-04-09T18:22:27.401Z,55.23
2023-04-09T18:24:54.496Z,55.07
2023-04-09T18:27:21.587Z,54.51
2023-04-09T18:29:51.097Z,54.78
2023-04-09T18:32:19.379Z,55.06
2023-04-09T18:34:47.017Z,54.75
2023-04-09T18:37:14.596Z,55.29
2023-04-09T18:39:41.559Z,57.05
2023-04-09T18:42:08.128Z,57.60
2023-04-09T18:44:36.340Z,58.16
2023-04-09T18:47:05.925Z,59.17
2023-04-09T18:49:33.433Z,59.33
2023-04-09T18:52:00.294Z,59.55
2023-04-09T18:54:26.912Z,59.92
2023-04-09T18:56:53.575Z,59.95
2023-04-09T18:59:19.986Z,60.73
2023-04-09T19:01:46.465Z,60.73
2023-04-09T19:04:13.053Z,61.39
2023-04-09T19:06:39.619Z,61.82
2023-04-09T19:09:06.836Z,61.89
2023-04-09T19:14:13.709Z,63.56
2023-04-09T19:16:40.182Z,63.80
2023-04-09T19:19:06.602Z,63.85
2023-04-09T19:21:33.859Z,64.36
2023-04-09T19:24:00.371Z,64.66
2023-04-09T19:26:27.183Z,64.83
2023-04-09T19:28:53.896Z,64.96
2023-04-09T19:31:20.726Z,65.58
2023-04-09T19:33:47.313Z,65.72
2023-04-09T19:36:14.004Z,66.01
2023-04-09T19:38:41.078Z,66.63
2023-04-09T19:41:07.646Z,66.38
2023-04-09T19:43:34.405Z,66.68
2023-04-09T19:46:05.986Z,67.19
2023-04-09T19:48:32.791Z,67.56
2023-04-09T19:50:59.201Z,68.02
2023-04-09T19:53:25.630Z,68.24
2023-04-09T19:56:00.853Z,68.24
2023-04-09T19:58:33.630Z,68.86
2023-04-09T20:01:00.044Z,68.50
2023-04-09T20:03:26.561Z,68.95
2023-04-09T20:05:53.576Z,69.24
2023-04-09T20:08:20.019Z,69.55
2023-04-09T20:10:47.246Z,69.78
2023-04-09T20:13:13.922Z,69.85
2023-04-09T20:15:40.355Z,70.16
2023-04-09T20:18:07.344Z,70.26
2023-04-09T20:20:35.186Z,70.62
2023-04-09T20:23:01.781Z,70.66
2023-04-09T20:25:34.316Z,70.78
2023-04-09T20:28:12.416Z,70.46
2023-04-09T20:30:38.802Z,71.76
2023-04-09T20:33:05.233Z,72.10
2023-04-09T20:35:35.300Z,71.70
2023-04-09T20:38:01.914Z,71.69
2023-04-09T20:40:28.676Z,72.26
2023-04-09T20:45:36.249Z,72.31
2023-04-09T20:48:02.963Z,72.65
2023-04-09T20:50:31.001Z,73.19
2023-04-09T20:52:58.735Z,72.77
2023-04-09T20:55:25.966Z,72.92
2023-04-09T20:57:53.937Z,72.70
2023-04-09T21:00:20.558Z,71.95
2023-04-09T21:02:47.221Z,72.39
2023-04-09T21:05:22.782Z,73.76
2023-04-09T21:07:51.680Z,73.44
2023-04-09T21:10:22.198Z,73.65
2023-04-09T21:12:48.867Z,74.06
2023-04-09T21:15:21.742Z,73.87
2023-04-09T21:17:48.214Z,73.35
2023-04-09T21:20:16.557Z,73.41
2023-04-09T21:22:43.182Z,73.60
2023-04-09T21:25:09.706Z,74.01
2023-04-09T21:27:36.208Z,74.05
2023-04-09T21:30:02.819Z,74.25
2023-04-09T21:32:29.319Z,74.18
2023-04-09T21:34:55.773Z,74.41
2023-04-09T21:37:22.616Z,74.34
2023-04-09T21:39:49.120Z,74.43
2023-04-09T21:42:15.737Z,74.87
2023-04-09T21:44:42.212Z,75.10
2023-04-09T21:47:09.630Z,75.30
2023-04-09T21:49:39.186Z,75.32
2023-04-09T21:52:10.818Z,75.27
2023-04-09T21:54:37.360Z,75.65
2023-04-09T21:57:03.917Z,75.76
2023-04-09T21:59:30.744Z,76.31
2023-04-09T22:01:57.290Z,75.95
2023-04-09T22:04:23.826Z,75.97
2023-04-09T22:06:50.344Z,76.68
2023-04-09T22:09:17.125Z,76.50
2023-04-09T22:11:43.514Z,76.67
2023-04-09T22:14:10.662Z,76.70
2023-04-09T22:16:37.017Z,76.68
2023-04-09T22:19:03.962Z,76.80
2023-04-09T22:21:37.584Z,76.86
2023-04-09T22:24:04.027Z,76.21
2023-04-09T22:26:31.539Z,76.90
2023-04-09T22:28:58.137Z,77.04
2023-04-09T22:31:27.343Z,76.83
2023-04-09T22:33:53.871Z,77.49
2023-04-09T22:36:20.371Z,77.21
2023-04-09T22:38:46.977Z,77.35
2023-04-09T22:41:13.547Z,77.62
2023-04-09T22:43:39.949Z,77.56
2023-04-09T22:46:07.316Z,77.82
2023-04-09T22:48:40.760Z,78.23
2023-04-09T22:51:11.321Z,78.40
2023-04-09T22:53:37.706Z,78.73
2023-04-09T22:56:04.270Z,78.55
2023-04-09T22:58:30.795Z,79.21
2023-04-09T23:00:57.554Z,78.93
2023-04-09T23:03:25.961Z,79.02
2023-04-09T23:05:58.764Z,78.90
2023-04-09T23:08:25.451Z,78.31
2023-04-09T23:10:51.926Z,78.92
2023-04-09T23:13:18.545Z,79.34
2023-04-09T23:15:45.044Z,79.17
2023-04-09T23:18:11.937Z,79.42
2023-04-09T23:20:38.443Z,79.56
2023-04-09T23:23:04.874Z,79.89
2023-04-09T23:25:31.721Z,79.46
2023-04-09T23:27:58.119Z,79.57
2023-04-09T23:30:24.836Z,79.52
2023-04-09T23:32:56.318Z,79.36
2023-04-09T23:35:23.899Z,79.42
2023-04-09T23:37:50.479Z,79.31
2023-04-09T23:40:19.824Z,79.74
2023-04-09T23:42:47.888Z,79.14
2023-04-09T23:45:14.866Z,79.43
2023-04-09T23:47:42.267Z,79.55
2023-04-09T23:50:09.250Z,79.19
2023-04-09T23:52:37.965Z,79.21
2023-04-09T23:55:08.863Z,79.28
2023-04-09T23:57:35.590Z,79.08
